Larnaca, Cypern

09:11 AM EET on December 13, 2017 (GMT +0200)
All You Can Surf | | Change Station

Elev 5 ft 34.95 °N, 33.65 °E | Updated 12 seconds ago

Klart
Klart
65.3 °F
Feels Like 65.3 °F
N
7.2
Vind Växlande Vind from NV
Gusts 9.8 miles/tim

Idag
High -- | Low -- °F
--% Chance of Precip.
Yesterday
High -- | Low -- °F
Precip. -- tum
Lufttryck 30.04 tum
Sikt 6.2 miles
Molnigt Few 2500 ft
Daggpunkt 55 °F
Luftfuktighet 70%
Rainfall 0.00 tum
Snow Depth Not available.
6:44 AM 4:34 PM
Fjärde kvarteret, 21% visible
METAR LCEN 130650Z 29009KT 9999 FEW025 13/10 Q1017 NOSIG RMK RWY11 29006KT
Lufttryck 30.04 tum
Sikt 6.2 miles
Molnigt Few 2500 ft
Daggpunkt 55 °F
Luftfuktighet 70%
Rainfall 0.00 tum
Snow Depth Not available.
6:44 AM 4:34 PM
Fjärde kvarteret, 21% visible
METAR LCEN 130650Z 29009KT 9999 FEW025 13/10 Q1017 NOSIG RMK RWY11 29006KT

Get Severe Weather Alerts

Thanks for signing up!

Be on the lookout for a verification email in your inbox.

You'll start receiving the daily forecast at 6 AM.

×

10-Day Weather Forecast

×

Almanac

Astronomi

Dec. 13, 2017 Rise Set
Actual Time
Civil Twilight
Nautical Twilight
Astronomical Twilight
Månen
Length Of Visible Light
Dagens längd
Tomorrow will be .
, % of the Moon is Illuminated

Today's Extremes

Country Highs Country Lows

Community

WunderPhotos

Category 6

Welcome to Category 6. This is the collective home for Weather Underground's featured writeups by Dr. Jeff Masters (right), Bob Henson (left), Chris Burt, and other regular contributors.

Nearby

Air Quality

  Air Quality AQ Index Pollutant
Not available.

Snödjup

Station Depth Elevation

Earthquake Activity

Stad Distance Mag. Time & Date
Minimum magnitude displayed is 2.5.

Coastal Water Temperatures

Plats Temperatur

Stations

Nearby Weather Stations

Station Location Temp Vindavkylning Daggpunkt Luftfuktighet Vind Precip. Elev Uppdaterad Type